Time;durP1;ratioP1;P1;durP2;ratioP2;P2;SDS_P1;SDS_P2;PMS_P1;PMS_P2;Temp;Humidity;BMP_temperature;BMP_pressure;BME280_temperature;BME280_humidity;BME280_pressure;Samples;Min_cycle;Max_cycle;Signal;HPM_P1;HPM_P2
2023/09/13 00:01:40;;;;;;;10.50;4.72;;;;;;;22.46;57.07;98772.31;5040296;28;20528;-93
2023/09/13 00:04:06;;;;;;;6.18;4.30;;;;;;;22.38;57.07;98764.78;5041112;28;20037;-94
2023/09/13 00:06:33;;;;;;;5.90;3.60;;;;;;;22.53;56.69;98796.16;5063285;28;20131;-95
2023/09/13 00:09:00;;;;;;;6.95;5.13;;;;;;;22.88;55.53;98807.97;5043255;28;20430;-95
2023/09/13 00:11:26;;;;;;;5.90;4.72;;;;;;;22.35;56.74;98797.53;5040072;28;20391;-95
2023/09/13 00:13:51;;;;;;;10.73;4.40;;;;;;;22.47;56.40;98801.16;5040432;28;20037;-94
2023/09/13 00:16:18;;;;;;;6.82;4.07;;;;;;;22.68;56.08;98832.03;5041276;28;20083;-94
2023/09/13 00:18:44;;;;;;;6.03;4.00;;;;;;;22.40;56.37;98791.75;5040017;28;20052;-91
2023/09/13 00:21:10;;;;;;;5.95;3.75;;;;;;;22.27;56.57;98790.00;5040226;28;20047;-92
2023/09/13 00:23:37;;;;;;;6.10;3.88;;;;;;;22.64;55.89;98810.69;5060457;28;20145;-92
2023/09/13 00:26:04;;;;;;;8.52;4.20;;;;;;;22.60;55.78;98776.69;5056534;28;20045;-93
2023/09/13 00:28:30;;;;;;;6.53;4.50;;;;;;;22.13;56.50;98765.72;5039331;28;20049;-92
2023/09/13 00:30:57;;;;;;;5.68;3.67;;;;;;;22.56;56.62;98835.69;5039244;28;20071;-93
2023/09/13 00:33:23;;;;;;;6.43;4.35;;;;;;;22.34;57.15;98814.78;5039623;28;20045;-94
2023/09/13 00:35:54;;;;;;;8.10;4.82;;;;;;;22.52;56.16;98820.66;5039679;28;20486;-92
2023/09/13 00:38:20;;;;;;;5.43;4.35;;;;;;;22.14;57.56;98830.63;5039775;28;20061;-93
2023/09/13 00:40:47;;;;;;;7.75;4.65;;;;;;;21.90;57.59;98791.78;5040157;28;20041;-93
2023/09/13 00:43:13;;;;;;;6.47;4.18;;;;;;;22.08;57.62;98809.41;5039703;28;20086;-92
2023/09/13 00:45:39;;;;;;;6.63;4.28;;;;;;;22.11;58.20;98835.38;5040449;28;20041;-93
2023/09/13 00:48:06;;;;;;;6.13;4.00;;;;;;;21.80;59.69;98842.19;5039483;28;20041;-94
2023/09/13 00:50:32;;;;;;;7.22;3.90;;;;;;;21.52;60.22;98784.63;5039050;28;20041;-93
2023/09/13 00:52:58;;;;;;;6.82;4.22;;;;;;;21.54;60.90;98821.41;5057794;28;20037;-92
2023/09/13 00:55:26;;;;;;;5.43;4.03;;;;;;;21.40;60.98;98802.56;5043280;28;20045;-95
2023/09/13 00:57:55;;;;;;;7.38;4.82;;;;;;;21.33;62.82;98828.31;5042736;28;20040;-93
2023/09/13 01:00:22;;;;;;;6.60;4.22;;;;;;;21.61;61.66;98816.44;5041270;28;20049;-94
2023/09/13 01:02:48;;;;;;;7.88;4.60;;;;;;;21.38;62.21;98785.56;5040215;28;20037;-92
2023/09/13 01:05:15;;;;;;;11.70;5.13;;;;;;;21.72;61.51;98829.19;5039284;28;20045;-95
2023/09/13 01:07:44;;;;;;;7.13;4.90;;;;;;;21.10;65.15;98838.91;5039658;28;20108;-94
2023/09/13 01:10:11;;;;;;;8.40;5.35;;;;;;;20.99;64.97;98811.75;5039390;28;20436;-94
2023/09/13 01:12:37;;;;;;;7.72;5.05;;;;;;;20.77;65.59;98789.88;5055239;28;20106;-92
2023/09/13 01:15:06;;;;;;;8.85;5.15;;;;;;;20.80;65.73;98795.06;5038675;28;20479;-93
2023/09/13 01:17:39;;;;;;;10.00;5.13;;;;;;;20.98;65.59;98815.41;5038548;28;20139;-93
2023/09/13 01:20:13;;;;;;;7.35;4.70;;;;;;;21.34;64.62;98838.19;5040053;28;20114;-92
2023/09/13 01:23:22;;;;;;;6.78;4.72;;;;;;;21.39;64.37;98841.41;5081673;28;20517;-96
2023/09/13 01:26:08;;;;;;;7.57;4.32;;;;;;;21.27;64.17;98823.34;5039233;28;20071;-94
2023/09/13 01:28:38;;;;;;;6.53;4.55;;;;;;;21.21;63.33;98818.34;5038751;28;20044;-93
2023/09/13 01:31:07;;;;;;;7.85;4.53;;;;;;;20.88;63.88;98793.56;5059608;28;20025;-91
2023/09/13 01:33:33;;;;;;;7.82;4.45;;;;;;;21.02;63.70;98799.84;5062593;28;20045;-95
2023/09/13 01:35:59;;;;;;;7.00;4.65;;;;;;;20.91;63.20;98760.91;5038989;28;20045;-94
2023/09/13 01:38:25;;;;;;;5.97;3.97;;;;;;;21.29;63.22;98835.75;5049619;28;20041;-94
2023/09/13 01:40:52;;;;;;;9.02;4.50;;;;;;;20.95;63.52;98783.19;5038599;28;20048;-96
2023/09/13 01:43:19;;;;;;;7.68;4.70;;;;;;;20.99;64.36;98806.34;5047526;28;20136;-94
2023/09/13 01:45:48;;;;;;;7.50;4.53;;;;;;;20.85;64.29;98785.66;5039659;28;20045;-95
2023/09/13 01:48:16;;;;;;;9.40;4.63;;;;;;;20.71;65.58;98792.03;5038861;28;20049;-94
2023/09/13 01:50:42;;;;;;;8.73;5.10;;;;;;;20.58;65.61;98769.53;5038870;28;20072;-96
2023/09/13 01:53:09;;;;;;;9.52;5.55;;;;;;;20.66;64.83;98758.16;5040491;28;20313;-94
2023/09/13 01:55:35;;;;;;;7.05;5.18;;;;;;;20.82;66.45;98831.84;5040092;28;20498;-94
2023/09/13 01:58:01;;;;;;;6.97;4.68;;;;;;;20.76;66.68;98820.56;5054785;28;20045;-94
2023/09/13 02:00:27;;;;;;;7.82;4.82;;;;;;;20.65;65.82;98792.44;5055058;28;20051;-95
2023/09/13 02:02:54;;;;;;;7.03;4.60;;;;;;;20.60;66.44;98799.13;5037623;28;20539;-94
2023/09/13 02:05:20;;;;;;;6.95;4.47;;;;;;;20.54;65.80;98792.28;5038081;28;20498;-96
2023/09/13 02:07:46;;;;;;;9.50;5.18;;;;;;;20.14;66.90;98773.31;5038101;28;20077;-94
2023/09/13 02:10:12;;;;;;;8.95;5.30;;;;;;;20.33;67.60;98812.63;5051706;28;20132;-93
2023/09/13 02:12:38;;;;;;;7.57;4.57;;;;;;;20.44;66.77;98826.28;5038358;28;20499;-94
2023/09/13 02:15:05;;;;;;;9.02;4.97;;;;;;;20.43;67.13;98830.81;5038004;28;20072;-95
2023/09/13 02:17:32;;;;;;;7.93;5.22;;;;;;;20.27;67.44;98798.53;5038179;28;20057;-94
2023/09/13 02:19:59;;;;;;;7.32;4.65;;;;;;;20.45;66.98;98820.78;5037154;28;20118;-94
2023/09/13 02:22:25;;;;;;;9.18;5.13;;;;;;;20.25;67.24;98805.00;5038661;28;20471;-95
2023/09/13 02:24:51;;;;;;;8.30;4.55;;;;;;;20.19;66.36;98759.50;5037825;28;20102;-95
2023/09/13 02:27:16;;;;;;;7.78;4.50;;;;;;;20.60;65.17;98780.19;5037708;28;20045;-95
2023/09/13 02:29:42;;;;;;;5.97;4.40;;;;;;;20.83;64.83;98811.06;5037637;28;20491;-96
2023/09/13 02:32:08;;;;;;;8.18;4.63;;;;;;;20.44;66.94;98824.44;5037834;28;20499;-95
2023/09/13 02:34:34;;;;;;;9.38;4.72;;;;;;;20.30;67.86;98832.59;5037746;28;20045;-94
2023/09/13 02:37:01;;;;;;;8.15;4.55;;;;;;;20.19;67.76;98814.41;5051915;28;20045;-94
2023/09/13 02:39:32;;;;;;;6.47;4.63;;;;;;;20.66;65.70;98809.50;5038361;28;20040;-95
2023/09/13 02:41:58;;;;;;;7.95;4.72;;;;;;;20.77;65.10;98795.28;5038016;28;20053;-94
2023/09/13 02:44:24;;;;;;;8.00;4.90;;;;;;;20.43;66.40;98789.44;5071820;28;20091;-94
2023/09/13 02:46:50;;;;;;;7.68;5.10;;;;;;;20.37;66.25;98777.19;5037754;28;20045;-93
2023/09/13 02:49:15;;;;;;;7.03;4.57;;;;;;;20.37;67.60;98812.31;5071178;28;20067;-95
2023/09/13 02:51:42;;;;;;;8.27;5.05;;;;;;;20.44;67.57;98800.13;5037622;28;20045;-96
2023/09/13 02:54:09;;;;;;;7.90;5.28;;;;;;;20.39;67.78;98804.13;5037760;28;20037;-94
2023/09/13 02:56:35;;;;;;;7.93;5.18;;;;;;;20.31;68.03;98767.66;5066066;28;20037;-94
2023/09/13 02:59:01;;;;;;;6.88;5.03;;;;;;;20.55;67.31;98785.03;5039150;28;20544;-93
2023/09/13 03:01:27;;;;;;;6.78;4.93;;;;;;;20.19;68.74;98806.31;5036938;28;20041;-95
2023/09/13 03:03:53;;;;;;;9.07;5.00;;;;;;;20.22;68.68;98781.78;5038559;28;20041;-94
2023/09/13 03:06:19;;;;;;;7.63;4.75;;;;;;;20.43;68.00;98793.00;5038414;28;20041;-94
2023/09/13 03:08:45;;;;;;;8.18;4.78;;;;;;;20.54;68.97;98808.47;5037486;28;20041;-95
2023/09/13 03:11:14;;;;;;;8.23;5.18;;;;;;;20.22;68.68;98773.69;5054765;28;20478;-94
2023/09/13 03:13:40;;;;;;;6.93;4.65;;;;;;;20.40;68.44;98786.94;5037712;28;20045;-96
2023/09/13 03:16:13;;;;;;;12.40;5.70;;;;;;;20.51;69.26;98805.97;5041631;28;20445;-93
2023/09/13 03:18:39;;;;;;;9.82;5.28;;;;;;;20.32;69.64;98798.25;5041543;28;20053;-93
2023/09/13 03:21:07;;;;;;;7.22;4.95;;;;;;;20.25;71.12;98796.91;5042050;28;20048;-93
2023/09/13 03:23:33;;;;;;;8.00;4.90;;;;;;;20.24;71.03;98782.56;5045842;28;20064;-93
2023/09/13 03:25:59;;;;;;;9.45;5.15;;;;;;;19.96;72.82;98786.22;5049492;28;20136;-96
2023/09/13 03:28:26;;;;;;;12.00;5.78;;;;;;;19.95;73.26;98783.59;5044617;28;20067;-95
2023/09/13 03:30:52;;;;;;;7.43;4.85;;;;;;;19.67;72.12;98739.50;5057722;28;20049;-95
2023/09/13 03:33:18;;;;;;;7.53;4.57;;;;;;;19.89;71.95;98764.16;5041814;28;20576;-96
2023/09/13 03:35:43;;;;;;;7.38;4.70;;;;;;;20.19;70.68;98776.59;5041118;28;20044;-95
2023/09/13 03:38:09;;;;;;;7.45;4.82;;;;;;;20.19;70.82;98770.31;5041326;28;20041;-95
2023/09/13 03:40:35;;;;;;;8.82;4.90;;;;;;;20.45;70.50;98803.69;5056748;28;20055;-95
2023/09/13 03:43:01;;;;;;;8.35;4.88;;;;;;;20.48;70.42;98798.94;5039879;28;20045;-95
2023/09/13 03:45:28;;;;;;;7.07;4.32;;;;;;;20.11;70.45;98770.84;5040857;28;20098;-95
2023/09/13 03:47:54;;;;;;;10.35;4.85;;;;;;;20.20;69.25;98734.25;5057451;28;20091;-95
2023/09/13 03:50:20;;;;;;;8.13;5.85;;;;;;;20.20;70.24;98777.47;5041866;28;20340;-95
2023/09/13 03:52:46;;;;;;;9.57;5.20;;;;;;;20.35;70.25;98805.28;5040462;28;20094;-95
2023/09/13 03:55:12;;;;;;;7.22;5.03;;;;;;;20.07;71.72;98801.69;5045082;28;20037;-94
2023/09/13 03:57:37;;;;;;;7.95;5.32;;;;;;;20.12;71.10;98791.44;5040652;28;20376;-94
2023/09/13 04:00:12;;;;;;;8.32;5.20;;;;;;;20.42;70.17;98795.78;5040669;28;20069;-95
2023/09/13 04:02:40;;;;;;;8.55;4.70;;;;;;;20.25;70.65;98792.38;5040721;28;20567;-94
2023/09/13 04:05:06;;;;;;;7.95;5.00;;;;;;;20.52;69.86;98818.53;5040579;28;20089;-94
2023/09/13 04:07:32;;;;;;;8.10;5.20;;;;;;;20.17;70.56;98785.75;5040986;28;20065;-96
2023/09/13 04:09:58;;;;;;;7.80;5.32;;;;;;;20.02;71.32;98787.66;5040859;28;20068;-96
2023/09/13 04:12:24;;;;;;;8.05;4.90;;;;;;;20.01;71.96;98807.50;5040835;28;20136;-94
2023/09/13 04:14:52;;;;;;;7.63;4.55;;;;;;;20.09;72.34;98810.56;5040429;28;20033;-95
2023/09/13 04:17:17;;;;;;;11.43;5.90;;;;;;;19.89;72.62;98785.75;5040245;28;20407;-96
2023/09/13 04:19:45;;;;;;;7.25;5.18;;;;;;;19.82;72.11;98784.41;5040230;28;20041;-96
2023/09/13 04:22:13;;;;;;;7.68;5.38;;;;;;;20.06;71.74;98813.44;5051542;28;20037;-94
2023/09/13 04:24:39;;;;;;;9.68;5.72;;;;;;;19.93;72.03;98809.81;5039888;28;20517;-94
2023/09/13 04:27:05;;;;;;;8.88;5.53;;;;;;;19.82;72.54;98803.31;5033422;28;20049;-95
2023/09/13 04:29:30;;;;;;;8.80;5.68;;;;;;;19.50;74.29;98779.22;5020375;28;20049;-94
2023/09/13 04:31:56;;;;;;;8.07;5.43;;;;;;;19.31;74.33;98759.75;5030636;28;20557;-94
2023/09/13 04:34:22;;;;;;;7.40;6.18;;;;;;;19.28;75.61;98777.00;5021477;28;20476;-94
2023/09/13 04:36:49;;;;;;;8.57;5.90;;;;;;;19.46;76.06;98830.75;5020129;28;20095;-95
2023/09/13 04:39:15;;;;;;;7.95;5.22;;;;;;;19.07;77.35;98806.16;5035993;28;20033;-94
2023/09/13 04:41:41;;;;;;;9.13;5.60;;;;;;;19.07;77.60;98821.47;5039838;28;20041;-94
2023/09/13 04:44:07;;;;;;;7.80;5.28;;;;;;;19.21;77.07;98818.78;5039817;28;20044;-94
2023/09/13 04:46:33;;;;;;;8.65;5.22;;;;;;;19.64;74.76;98826.88;5046493;28;20067;-94
2023/09/13 04:48:59;;;;;;;8.88;5.45;;;;;;;19.27;75.08;98794.13;5040336;28;20052;-94
2023/09/13 04:51:24;;;;;;;7.63;4.90;;;;;;;19.17;75.09;98782.22;5057213;28;20045;-94
2023/09/13 04:53:52;;;;;;;8.90;5.85;;;;;;;19.66;74.03;98829.47;5040153;28;20501;-95
2023/09/13 04:56:17;;;;;;;8.27;5.28;;;;;;;19.82;73.06;98816.78;5040147;28;20072;-94
2023/09/13 04:58:44;;;;;;;9.70;5.85;;;;;;;19.38;74.64;98801.56;5056874;28;20053;-96
2023/09/13 05:01:09;;;;;;;8.70;6.00;;;;;;;19.42;76.19;98818.41;5042825;28;20037;-95
2023/09/13 05:03:35;;;;;;;9.43;5.70;;;;;;;19.07;76.03;98771.13;5039943;28;20143;-94
2023/09/13 05:06:01;;;;;;;9.70;6.13;;;;;;;19.41;76.51;98841.81;5038821;28;20053;-95
2023/09/13 05:08:27;;;;;;;9.13;5.53;;;;;;;19.44;75.76;98811.97;5039948;28;20041;-93
2023/09/13 05:10:55;;;;;;;9.38;5.72;;;;;;;19.18;76.67;98818.13;5039597;28;20242;-95
2023/09/13 05:13:21;;;;;;;9.27;5.70;;;;;;;19.61;76.94;98861.28;5039643;28;20041;-95
2023/09/13 05:15:47;;;;;;;10.32;6.32;;;;;;;19.50;77.14;98860.13;5039689;28;20402;-95
2023/09/13 05:18:13;;;;;;;9.40;5.50;;;;;;;19.25;76.93;98817.63;5039561;28;20053;-95
2023/09/13 05:20:38;;;;;;;10.98;5.85;;;;;;;19.45;76.71;98835.28;5040764;28;20087;-96
2023/09/13 05:23:05;;;;;;;9.45;5.90;;;;;;;19.48;76.58;98842.31;5041080;28;20079;-95
2023/09/13 05:25:30;;;;;;;9.90;6.30;;;;;;;19.66;76.02;98878.91;5040782;28;20135;-96
2023/09/13 05:27:58;;;;;;;14.20;5.68;;;;;;;19.52;76.54;98832.19;5039522;28;20045;-94
2023/09/13 05:30:25;;;;;;;8.60;5.45;;;;;;;19.71;76.12;98854.38;5039222;28;20495;-95
2023/09/13 05:32:51;;;;;;;11.18;6.53;;;;;;;19.72;76.77;98861.50;5041927;28;20047;-94
2023/09/13 05:35:16;;;;;;;8.98;5.30;;;;;;;19.87;76.26;98862.38;5039425;28;20139;-94
2023/09/13 05:37:43;;;;;;;9.35;5.63;;;;;;;19.65;76.48;98827.78;5037810;28;20036;-94
2023/09/13 05:40:10;;;;;;;9.10;5.93;;;;;;;19.86;76.54;98858.81;5039370;28;20049;-94
2023/09/13 05:42:35;;;;;;;9.13;6.15;;;;;;;20.22;74.99;98880.84;5038817;28;20052;-93
2023/09/13 05:45:04;;;;;;;9.45;5.53;;;;;;;20.18;74.51;98869.34;5037456;28;20041;-93
2023/09/13 05:47:29;;;;;;;9.57;5.57;;;;;;;20.21;74.37;98861.06;5039107;28;20093;-94
2023/09/13 05:49:55;;;;;;;11.35;5.50;;;;;;;20.34;75.31;98890.81;5039055;28;20514;-94
2023/09/13 05:52:21;;;;;;;9.07;5.57;;;;;;;20.21;74.39;98846.69;5038393;28;20041;-94
2023/09/13 05:54:47;;;;;;;11.70;6.13;;;;;;;20.47;75.02;98878.25;5038199;28;20075;-92
2023/09/13 05:57:13;;;;;;;10.02;5.80;;;;;;;20.23;75.77;98840.25;5038353;28;20037;-95
2023/09/13 05:59:39;;;;;;;11.45;6.75;;;;;;;20.58;74.91;98891.09;5038524;28;20490;-95
2023/09/13 06:02:07;;;;;;;10.23;6.25;;;;;;;20.61;73.65;98876.50;5038365;28;20044;-94
2023/09/13 06:04:33;;;;;;;12.18;5.93;;;;;;;20.58;74.22;98882.09;5039506;28;20041;-93
2023/09/13 06:06:59;;;;;;;13.73;6.57;;;;;;;20.53;73.91;98850.81;5038658;28;20095;-94
2023/09/13 06:09:25;;;;;;;8.02;6.13;;;;;;;21.05;71.64;98903.22;5038861;28;20494;-94
2023/09/13 06:11:51;;;;;;;11.65;6.05;;;;;;;21.15;70.01;98891.81;5037993;28;20503;-93
2023/09/13 06:14:18;;;;;;;9.25;6.25;;;;;;;21.30;69.77;98899.72;5038140;28;20033;-94
2023/09/13 06:16:44;;;;;;;12.13;5.93;;;;;;;21.52;69.06;98912.66;5037709;28;20139;-93
2023/09/13 06:19:11;;;;;;;11.75;5.78;;;;;;;21.57;67.66;98898.81;5037617;28;20045;-94
2023/09/13 06:21:37;;;;;;;10.85;6.15;;;;;;;21.66;67.86;98910.81;5037945;28;20064;-94
2023/09/13 06:24:03;;;;;;;10.25;6.13;;;;;;;21.84;67.04;98906.81;5037595;28;20103;-93
2023/09/13 06:26:29;;;;;;;11.65;6.18;;;;;;;21.59;66.93;98858.97;5036858;28;20037;-93
2023/09/13 06:28:55;;;;;;;12.38;6.18;;;;;;;21.83;66.08;98869.03;5037819;28;20490;-94
2023/09/13 06:31:21;;;;;;;11.23;6.20;;;;;;;22.07;66.07;98924.09;5037737;28;20072;-96
2023/09/13 06:33:47;;;;;;;13.88;6.50;;;;;;;22.24;65.90;98930.19;5037559;28;20083;-95
2023/09/13 06:36:14;;;;;;;10.70;6.15;;;;;;;22.24;65.11;98912.09;5037442;28;20490;-93
2023/09/13 06:38:40;;;;;;;9.55;5.97;;;;;;;22.47;64.75;98923.09;5038650;28;20055;-94
2023/09/13 06:41:06;;;;;;;9.68;5.45;;;;;;;22.65;62.74;98923.59;5037684;28;20131;-94
2023/09/13 06:43:32;;;;;;;11.77;5.90;;;;;;;22.64;62.87;98903.75;5037596;28;20048;-94
2023/09/13 06:45:58;;;;;;;8.18;5.68;;;;;;;22.96;62.09;98938.41;5039396;28;20533;-95
2023/09/13 06:48:23;;;;;;;11.02;6.22;;;;;;;22.72;62.72;98887.75;5054791;28;20056;-94
2023/09/13 06:50:49;;;;;;;15.43;6.28;;;;;;;22.91;62.82;98886.38;5037686;28;20099;-94
2023/09/13 06:53:17;;;;;;;9.32;5.38;;;;;;;23.14;62.64;98904.50;5038214;28;20037;-94
2023/09/13 06:55:43;;;;;;;11.05;5.93;;;;;;;23.36;62.49;98913.69;5037712;28;20135;-93
2023/09/13 06:58:08;;;;;;;9.02;5.55;;;;;;;23.45;60.78;98923.84;5037968;28;20113;-96
2023/09/13 07:00:34;;;;;;;9.23;4.97;;;;;;;23.43;60.67;98917.66;5037354;28;20072;-94
2023/09/13 07:03:03;;;;;;;10.68;5.60;;;;;;;23.46;61.60;98949.97;5036984;28;20069;-93
2023/09/13 07:05:29;;;;;;;8.40;5.65;;;;;;;23.26;62.24;98966.94;5037685;28;20065;-95
2023/09/13 07:07:55;;;;;;;10.43;6.15;;;;;;;23.16;61.55;98945.94;5039085;28;20080;-94
2023/09/13 07:10:22;;;;;;;10.52;5.50;;;;;;;23.33;62.42;98979.94;5037311;28;20045;-94
2023/09/13 07:12:48;;;;;;;11.52;5.68;;;;;;;23.59;60.95;98958.03;5037566;28;20562;-96
2023/09/13 07:15:16;;;;;;;9.65;5.60;;;;;;;23.64;60.74;98938.66;5037221;28;20136;-94
2023/09/13 07:17:42;;;;;;;10.13;6.45;;;;;;;23.90;59.66;98950.22;5037114;28;20379;-95
2023/09/13 07:20:10;;;;;;;13.68;6.25;;;;;;;24.01;58.34;98922.22;5070128;28;20065;-95
2023/09/13 07:22:36;;;;;;;7.28;5.40;;;;;;;24.22;58.15;98936.78;5037463;28;20041;-94
2023/09/13 07:25:04;;;;;;;9.68;6.65;;;;;;;24.47;57.85;98972.88;5037549;28;20433;-95
2023/09/13 07:27:31;;;;;;;9.30;5.10;;;;;;;24.38;57.59;98961.75;5070954;28;20055;-94
2023/09/13 07:29:57;;;;;;;9.88;5.53;;;;;;;24.52;56.62;98970.66;5070850;28;20052;-94
2023/09/13 07:32:23;;;;;;;8.55;5.25;;;;;;;24.49;56.58;98946.47;5070134;28;20037;-94
2023/09/13 07:34:49;;;;;;;8.63;5.07;;;;;;;24.64;55.90;98963.38;5036972;28;20067;-93
2023/09/13 07:37:14;;;;;;;6.32;4.60;;;;;;;24.86;55.06;98967.91;5036896;28;20048;-94
2023/09/13 07:39:42;;;;;;;8.98;5.22;;;;;;;25.01;54.39;98969.34;5036761;28;20096;-94
2023/09/13 07:42:08;;;;;;;8.02;4.25;;;;;;;25.21;52.43;98954.09;5037221;28;20037;-95
2023/09/13 07:44:35;;;;;;;8.98;5.28;;;;;;;25.59;52.08;98979.88;5036802;28;20041;-96
2023/09/13 07:47:01;;;;;;;7.63;5.05;;;;;;;25.47;51.72;98942.84;5035850;28;20037;-94
2023/09/13 07:49:27;;;;;;;7.03;5.20;;;;;;;25.65;51.19;98954.00;5036865;28;20048;-95
2023/09/13 07:51:53;;;;;;;8.20;5.32;;;;;;;25.43;51.62;98958.56;5036849;28;20482;-94
2023/09/13 07:54:19;;;;;;;7.57;5.07;;;;;;;25.38;50.83;98969.84;5036848;28;20041;-96
2023/09/13 07:56:44;;;;;;;9.40;4.93;;;;;;;25.75;49.83;98974.00;5037021;28;20037;-95
2023/09/13 07:59:14;;;;;;;8.70;4.97;;;;;;;26.10;48.76;98957.31;5036402;28;20036;-95
2023/09/13 08:01:41;;;;;;;7.90;4.95;;;;;;;25.92;48.68;98988.91;5039652;28;20144;-94
2023/09/13 08:04:07;;;;;;;7.80;4.63;;;;;;;25.96;49.52;98944.91;5040965;28;20041;-94
2023/09/13 08:06:33;;;;;;;11.23;5.30;;;;;;;26.30;50.17;98969.16;5040359;28;20045;-95
2023/09/13 08:08:59;;;;;;;7.00;4.68;;;;;;;25.91;49.91;98963.50;5040307;28;20043;-95
2023/09/13 08:11:25;;;;;;;8.27;5.18;;;;;;;25.97;48.38;98941.19;5040225;28;20037;-95
2023/09/13 08:13:50;;;;;;;13.73;5.07;;;;;;;26.04;47.68;98960.56;5039936;28;20510;-95
2023/09/13 08:16:16;;;;;;;9.68;4.50;;;;;;;25.95;48.71;98945.91;5040095;28;20039;-96
2023/09/13 08:18:44;;;;;;;6.85;4.88;;;;;;;25.80;47.92;98936.31;5040034;28;20509;-95
2023/09/13 08:21:10;;;;;;;6.97;5.22;;;;;;;25.50;47.24;98939.84;5040014;28;20060;-96
2023/09/13 08:23:35;;;;;;;9.45;5.30;;;;;;;25.28;49.12;98949.84;5039905;28;20069;-95
2023/09/13 08:26:01;;;;;;;9.13;4.72;;;;;;;25.58;49.38;98973.59;5039105;28;20041;-95
2023/09/13 08:28:27;;;;;;;11.25;4.50;;;;;;;25.67;48.30;98914.72;5039822;28;20041;-95
2023/09/13 08:30:53;;;;;;;7.60;5.32;;;;;;;26.23;46.46;98944.31;5039976;28;20033;-95
2023/09/13 08:33:19;;;;;;;7.25;4.30;;;;;;;26.44;46.71;98949.72;5040043;28;20079;-94
2023/09/13 08:35:47;;;;;;;8.93;5.15;;;;;;;26.77;44.80;98961.31;5040223;28;20033;-96
2023/09/13 08:38:13;;;;;;;9.55;5.07;;;;;;;27.04;44.60;98946.13;5040016;28;20531;-96
2023/09/13 08:40:43;;;;;;;15.73;5.50;;;;;;;27.34;45.34;98968.91;5049679;28;20072;-95
2023/09/13 08:43:10;;;;;;;14.13;5.82;;;;;;;27.56;43.92;98985.00;5039736;28;20053;-95
2023/09/13 08:45:38;;;;;;;12.38;5.40;;;;;;;26.92;44.89;98945.41;5039928;28;20139;-96
2023/09/13 08:48:06;;;;;;;8.80;5.18;;;;;;;27.36;43.33;98977.81;5043892;28;20072;-95
2023/09/13 08:50:34;;;;;;;10.70;5.70;;;;;;;26.50;44.55;98952.88;5039786;28;20072;-95
2023/09/13 08:53:03;;;;;;;11.77;5.15;;;;;;;27.20;44.97;98973.75;5039946;28;20511;-96
2023/09/13 08:55:31;;;;;;;8.60;4.43;;;;;;;27.45;44.18;98971.47;5039559;28;20158;-96
2023/09/13 08:57:57;;;;;;;17.52;6.30;;;;;;;27.20;43.15;99006.50;5040176;28;20095;-95
2023/09/13 09:00:26;;;;;;;8.90;4.85;;;;;;;26.87;44.04;98987.75;5041338;28;20041;-94
2023/09/13 09:02:54;;;;;;;7.95;4.80;;;;;;;26.86;45.70;98951.44;5039453;28;20044;-95
2023/09/13 09:05:24;;;;;;;13.15;5.53;;;;;;;27.28;44.20;98977.66;5039302;28;20024;-96
2023/09/13 09:07:51;;;;;;;9.27;5.10;;;;;;;27.53;43.62;98974.38;5039147;28;20041;-96
2023/09/13 09:10:19;;;;;;;10.02;5.05;;;;;;;27.86;43.60;98945.72;5039370;28;20499;-96
2023/09/13 09:12:48;;;;;;;9.20;5.72;;;;;;;28.23;42.36;98964.03;5041524;28;20083;-95
2023/09/13 09:15:16;;;;;;;9.35;5.78;;;;;;;27.79;42.11;98919.13;5041246;28;20051;-95
2023/09/13 09:17:46;;;;;;;12.45;5.68;;;;;;;26.81;43.44;98940.09;5042691;28;20064;-96
2023/09/13 09:20:12;;;;;;;10.85;5.93;;;;;;;26.37;45.66;98975.81;5043427;28;20049;-94
2023/09/13 09:22:39;;;;;;;9.45;5.22;;;;;;;26.68;45.28;98972.22;5043439;28;20071;-94
2023/09/13 09:25:10;;;;;;;7.90;4.82;;;;;;;26.93;43.99;98925.31;5044024;28;20040;-96
2023/09/13 09:27:39;;;;;;;9.65;5.20;;;;;;;27.51;43.47;98932.66;5058444;28;20144;-95
2023/09/13 09:30:07;;;;;;;9.57;5.20;;;;;;;27.29;42.84;98944.75;5057792;28;20140;-96
2023/09/13 09:32:35;;;;;;;7.90;5.28;;;;;;;26.85;43.76;98952.47;5041178;28;20045;-96
2023/09/13 09:35:04;;;;;;;10.82;6.40;;;;;;;27.14;43.53;98936.09;5041704;28;20051;-94
2023/09/13 09:37:30;;;;;;;11.73;5.28;;;;;;;27.53;43.07;98979.81;5041913;28;20055;-95
2023/09/13 09:39:56;;;;;;;10.48;5.78;;;;;;;26.88;43.43;98913.09;5042983;28;20490;-95
2023/09/13 09:42:23;;;;;;;9.32;5.28;;;;;;;27.69;42.82;98919.13;5040100;28;20049;-96
2023/09/13 09:44:50;;;;;;;10.98;5.75;;;;;;;27.81;42.69;98917.09;5041071;28;20135;-96
2023/09/13 09:47:17;;;;;;;9.93;5.05;;;;;;;27.76;42.50;98920.28;5038622;28;20060;-96
2023/09/13 09:49:44;;;;;;;9.60;5.15;;;;;;;27.92;41.81;98957.94;5039759;28;20041;-96
2023/09/13 09:52:10;;;;;;;11.18;5.82;;;;;;;27.91;43.26;98971.75;5038485;28;20064;-95
2023/09/13 09:54:37;;;;;;;7.40;5.47;;;;;;;27.68;42.14;98950.19;5039952;28;20033;-95
2023/09/13 09:57:03;;;;;;;7.57;5.10;;;;;;;27.25;42.97;98897.75;5040985;28;20578;-96
2023/09/13 09:59:29;;;;;;;12.32;5.07;;;;;;;26.98;44.79;98900.34;5039597;28;20144;-95
2023/09/13 10:01:58;;;;;;;9.05;4.90;;;;;;;26.37;43.97;98898.59;5039886;28;20049;-94
2023/09/13 10:04:23;;;;;;;8.57;4.72;;;;;;;26.21;44.20;98905.44;5041155;28;20040;-95
2023/09/13 10:06:57;;;;;;;8.20;5.15;;;;;;;26.15;45.45;98895.06;5041595;28;20040;-96
2023/09/13 10:09:23;;;;;;;11.48;5.50;;;;;;;26.00;45.85;98957.28;5073624;28;20037;-95
2023/09/13 10:11:56;;;;;;;10.23;5.10;;;;;;;26.22;45.78;98941.75;5024472;28;20079;-96
2023/09/13 10:14:26;;;;;;;7.95;5.18;;;;;;;26.20;44.92;98898.25;5039889;28;20124;-95
2023/09/13 10:16:54;;;;;;;12.32;5.47;;;;;;;26.16;45.82;98923.22;5041014;28;20048;-95
2023/09/13 10:19:26;;;;;;;7.30;4.63;;;;;;;26.54;46.19;98979.72;5046131;28;20053;-95
2023/09/13 10:21:54;;;;;;;7.78;5.10;;;;;;;26.26;45.79;98964.97;5040339;28;20099;-96
2023/09/13 10:24:22;;;;;;;10.57;5.07;;;;;;;26.15;47.10;98925.03;5040585;28;20041;-95
2023/09/13 10:26:51;;;;;;;8.10;5.93;;;;;;;26.15;46.10;98922.31;5040608;28;20437;-95
2023/09/13 10:29:24;;;;;;;9.27;5.20;;;;;;;26.10;45.54;98931.94;5040349;28;20127;-96
2023/09/13 10:31:55;;;;;;;7.43;4.78;;;;;;;26.21;45.57;98949.03;5040858;28;20038;-96
2023/09/13 10:34:25;;;;;;;8.75;4.80;;;;;;;26.21;45.96;98953.63;5055829;28;20041;-94
2023/09/13 10:37:00;;;;;;;10.50;5.47;;;;;;;25.97;46.05;98926.69;5037676;28;20514;-95
2023/09/13 10:39:30;;;;;;;13.82;5.88;;;;;;;25.89;46.52;98946.44;5054254;28;20040;-94
2023/09/13 10:42:02;;;;;;;9.30;5.13;;;;;;;26.43;45.49;98939.78;5037639;28;20126;-95
2023/09/13 10:44:28;;;;;;;6.85;5.18;;;;;;;26.63;45.91;98940.78;5037350;28;20063;-95
2023/09/13 10:46:55;;;;;;;5.43;4.65;;;;;;;26.86;45.74;98953.31;5037027;28;20037;-96
2023/09/13 10:49:21;;;;;;;8.25;4.65;;;;;;;26.52;45.60;98937.25;5038101;28;20041;-96
2023/09/13 10:51:49;;;;;;;11.30;4.97;;;;;;;26.54;46.08;98918.88;5037073;28;20108;-93
2023/09/13 10:54:18;;;;;;;8.20;4.57;;;;;;;26.44;46.34;98943.41;5036725;28;20036;-94
2023/09/13 10:56:44;;;;;;;7.88;5.22;;;;;;;26.63;46.68;98959.88;5036884;28;20045;-95
2023/09/13 10:59:14;;;;;;;9.75;4.88;;;;;;;26.88;45.83;98960.34;5036008;28;20041;-94
2023/09/13 11:01:46;;;;;;;9.43;5.22;;;;;;;26.90;45.42;98946.56;5036383;28;20047;-95
2023/09/13 11:04:12;;;;;;;6.07;4.15;;;;;;;27.27;44.34;98940.47;5038059;28;20099;-96
2023/09/13 11:06:38;;;;;;;7.20;4.47;;;;;;;27.24;43.71;98931.53;5037291;28;20044;-95
2023/09/13 11:09:16;;;;;;;9.20;4.60;;;;;;;27.59;42.89;98934.69;5037953;28;20061;-95
2023/09/13 11:11:47;;;;;;;7.32;4.65;;;;;;;27.65;41.89;98914.94;5037256;28;20063;-96
2023/09/13 11:14:17;;;;;;;7.25;4.97;;;;;;;27.54;42.19;98921.47;5036668;28;20037;-93
2023/09/13 11:16:45;;;;;;;7.72;3.97;;;;;;;28.00;40.86;98949.03;5038722;28;20044;-92
2023/09/13 11:19:14;;;;;;;6.75;4.22;;;;;;;27.88;41.02;98907.31;5038045;28;20063;-94
2023/09/13 11:21:47;;;;;;;9.00;4.22;;;;;;;28.34;40.94;98943.84;5037110;28;20045;-95
2023/09/13 11:24:14;;;;;;;7.70;4.60;;;;;;;28.30;42.29;98906.00;5037542;28;20091;-95
2023/09/13 11:26:44;;;;;;;9.02;4.13;;;;;;;28.48;40.70;98937.06;5036663;28;20494;-95
2023/09/13 11:29:22;;;;;;;6.68;4.50;;;;;;;28.61;39.43;98928.50;5036533;28;20132;-95
2023/09/13 11:31:58;;;;;;;7.40;3.97;;;;;;;28.65;41.32;98900.69;5036067;28;20040;-94